EGNT Airport Information

Runway Information
Runway 07 Length 7642 ft width 151 ft
Elevation 263 ft Threshold 394 ft Heading 65
Runway 25 Length 7642 ft Width 151 ft
Elevation 239 ft Threshold 446 ft Heading 245
Airport Frequencies
Type APP Name APP Frequency 124.375 MHZ
Type ATIS Name ATIS Frequency 118.375 MHZ
Type GND Name GND Frequency 121.725 MHZ
Type ILS Name Runway 07/ Frequency 111.5 MHZ
Type TWR Name TWR Frequency 119.7 MHZ
Airport Navaids
Type VOR-DME Name Newcastle Frequency 114250 KHZ
Airport Weather Information & NOTAM
ADDS - METARS form results

(2243 UTC 09 August 2022)
Data provider http://aviationweather.gov/metar/data/
 
METAR text: EGNT 092220Z 25004KT CAVOK 17/12 Q1028
Conditions at: EGNT (NEWCASTLE , GB) observed 2220 UTC 09 August 2022
Temperature: 17.0°C (63°F)
Dewpoint: 12.0°C (54°F) [RH = 72%]
Pressure (altimeter): 30.35 inches Hg (1028.0 mb)
Winds: from the WSW (250 degrees) at 5 MPH (4 knots; 2.1 m/s)
Visibility: 6 or more miles (10+ km)
Ceiling: ceiling and visibility are OK
Clouds: unknown
Weather: no significant weather observed at this time

METAR text: EGNT 092150Z 24003KT CAVOK 17/12 Q1028
Conditions at: EGNT (NEWCASTLE , GB) observed 2150 UTC 09 August 2022
Temperature: 17.0°C (63°F)
Dewpoint: 12.0°C (54°F) [RH = 72%]
Pressure (altimeter): 30.35 inches Hg (1028.0 mb)
Winds: from the WSW (240 degrees) at 3 MPH (3 knots; 1.5 m/s)
Visibility: 6 or more miles (10+ km)
Ceiling: ceiling and visibility are OK
Clouds: unknown
Weather: no significant weather observed at this time

Forecast for: EGNT (NEWCASTLE , GB)
Text: TAF EGNT 091653Z 0918/1018 29007KT 9999 FEW045
Forecast period: 1800 UTC 09 August 2022 to 1800 UTC 10 August 2022
Forecast type: FROM: standard forecast or significant change
Winds: from the WNW (290 degrees) at 8 MPH (7 knots; 3.6 m/s)
Visibility: 6 or more miles (10+ km)
Ceiling: at least 12,000 feet AGL
Clouds: few clouds at 4500 feet AGL
Weather: no significant weather forecast for this period
Text: PROB40 1001/1003 8000
Forecast period: 0100 to 0300 UTC 10 August 2022
Forecast type: PROBABLE: 40 percent likelihood of the following during this time
Visibility: 5 miles (8 km)
Ceiling: unknown
Clouds: missing
Weather: no significant weather forecast for this period
Text: PROB40 1003/1006 0800 FG
Forecast period: 0300 to 0600 UTC 10 August 2022
Forecast type: PROBABLE: 40 percent likelihood of the following during this time
Visibility: 0.50 miles (0.80 km)
Ceiling: unknown
Clouds: missing
Weather: FG  (fog)
Text: PROB30 1006/1008 8000
Forecast period: 0600 to 0800 UTC 10 August 2022
Forecast type: PROBABLE: 30 percent likelihood of the following during this time
Visibility: 5 miles (8 km)
Ceiling: unknown
Clouds: missing
Weather: no significant weather forecast for this period